createdAt,value
2023-04-14T00:00:02.361Z,12.73
2023-04-14T00:03:01.799Z,12.60
2023-04-14T00:05:33.699Z,12.51
2023-04-14T00:08:02.233Z,12.56
2023-04-14T00:10:30.294Z,12.68
2023-04-14T00:12:58.122Z,12.43
2023-04-14T00:15:26.614Z,12.03
2023-04-14T00:17:54.434Z,12.39
2023-04-14T00:20:22.466Z,12.27
2023-04-14T00:22:50.043Z,12.15
2023-04-14T00:25:18.239Z,12.26
2023-04-14T00:27:45.914Z,12.11
2023-04-14T00:30:15.745Z,11.93
2023-04-14T00:32:43.448Z,12.10
2023-04-14T00:35:11.511Z,11.36
2023-04-14T00:37:39.203Z,11.67
2023-04-14T00:40:11.500Z,11.61
2023-04-14T00:42:43.534Z,11.57
2023-04-14T00:45:11.993Z,11.61
2023-04-14T00:47:41.102Z,12.12
2023-04-14T00:50:09.867Z,12.32
2023-04-14T00:52:39.244Z,12.30
2023-04-14T00:55:07.722Z,11.75
2023-04-14T00:57:35.482Z,12.14
2023-04-14T01:00:07.407Z,12.17
2023-04-14T01:02:35.446Z,11.83
2023-04-14T01:05:03.990Z,12.10
2023-04-14T01:07:31.927Z,11.93
2023-04-14T01:10:01.384Z,12.13
2023-04-14T01:12:37.941Z,11.95
2023-04-14T01:15:12.840Z,11.50
2023-04-14T01:17:47.830Z,11.36
2023-04-14T01:20:23.050Z,11.75
2023-04-14T01:23:10.977Z,11.45
2023-04-14T01:25:38.952Z,12.36
2023-04-14T01:28:22.631Z,11.85
2023-04-14T01:31:11.625Z,12.13
2023-04-14T01:33:41.724Z,12.40
2023-04-14T01:36:14.405Z,12.45
2023-04-14T01:38:44.444Z,12.10
2023-04-14T01:41:14.115Z,11.86
2023-04-14T01:43:44.372Z,12.21
2023-04-14T01:46:14.733Z,11.90
2023-04-14T01:48:42.815Z,11.38
2023-04-14T01:51:12.353Z,11.32
2023-04-14T01:53:43.281Z,11.36
2023-04-14T01:56:13.330Z,11.21
2023-04-14T01:58:42.666Z,10.83
2023-04-14T02:01:10.914Z,10.98
2023-04-14T02:03:40.050Z,11.19
2023-04-14T02:06:09.213Z,10.70
2023-04-14T02:08:37.814Z,10.71
2023-04-14T02:11:06.648Z,10.90
2023-04-14T02:13:35.563Z,10.93
2023-04-14T02:16:06.043Z,10.92
2023-04-14T02:18:34.160Z,11.16
2023-04-14T02:21:04.161Z,11.30
2023-04-14T02:23:33.298Z,11.28
2023-04-14T02:26:05.102Z,11.63
2023-04-14T02:28:34.786Z,11.55
2023-04-14T02:31:05.991Z,11.71
2023-04-14T02:33:37.082Z,11.44
2023-04-14T02:36:14.457Z,12.03
2023-04-14T02:38:50.438Z,12.25
2023-04-14T02:41:28.887Z,11.88
2023-04-14T02:44:11.053Z,11.81
2023-04-14T02:46:42.104Z,11.62
2023-04-14T02:49:13.874Z,11.66
2023-04-14T02:51:45.581Z,11.85
2023-04-14T02:54:14.419Z,11.81
2023-04-14T02:56:46.907Z,12.53
2023-04-14T02:59:15.079Z,12.60
2023-04-14T03:01:57.727Z,12.69
2023-04-14T03:04:25.982Z,12.83
2023-04-14T03:06:56.083Z,12.64
2023-04-14T03:09:24.704Z,12.42
2023-04-14T03:11:54.092Z,12.74
2023-04-14T03:14:23.093Z,12.87
2023-04-14T03:16:54.614Z,12.91
2023-04-14T03:19:24.557Z,12.80
2023-04-14T03:21:54.940Z,12.91
2023-04-14T03:24:31.030Z,13.20
2023-04-14T03:27:03.411Z,13.01
2023-04-14T03:29:40.931Z,12.88
2023-04-14T03:32:10.603Z,12.95
2023-04-14T03:34:44.994Z,12.95
2023-04-14T03:37:16.620Z,13.03
2023-04-14T03:39:46.090Z,13.15
2023-04-14T03:42:14.625Z,13.11
2023-04-14T03:44:46.463Z,13.09
2023-04-14T03:47:15.870Z,12.97
2023-04-14T03:49:47.049Z,13.16
2023-04-14T03:52:17.008Z,13.07
2023-04-14T03:54:46.126Z,12.69
2023-04-14T03:57:17.817Z,12.95
2023-04-14T03:59:50.921Z,13.03
2023-04-14T04:02:23.071Z,12.90
2023-04-14T04:04:51.628Z,13.23
2023-04-14T04:07:21.376Z,13.19
2023-04-14T04:09:51.074Z,13.12
2023-04-14T04:12:20.651Z,13.27
2023-04-14T04:14:48.526Z,13.35
2023-04-14T04:17:18.747Z,13.36
2023-04-14T04:19:48.181Z,13.27
2023-04-14T04:22:18.941Z,13.46
2023-04-14T04:24:48.758Z,13.30
2023-04-14T04:27:28.048Z,13.10
2023-04-14T04:30:11.757Z,13.35
2023-04-14T04:32:39.883Z,12.97
2023-04-14T04:35:09.338Z,13.18
2023-04-14T04:37:38.637Z,13.31
2023-04-14T04:40:31.976Z,12.96
2023-04-14T04:43:00.052Z,13.21
2023-04-14T04:45:38.970Z,13.28
2023-04-14T04:48:07.263Z,13.10
2023-04-14T04:50:34.962Z,13.40
2023-04-14T04:53:03.334Z,13.37
2023-04-14T04:55:31.144Z,13.32
2023-04-14T04:57:59.411Z,13.66
2023-04-14T05:00:27.430Z,13.46
2023-04-14T05:02:56.088Z,13.54
2023-04-14T05:05:23.831Z,13.50
2023-04-14T05:07:52.031Z,13.65
2023-04-14T05:10:19.744Z,13.69
2023-04-14T05:12:47.674Z,13.72
2023-04-14T05:15:16.353Z,13.79
2023-04-14T05:17:44.341Z,13.59
2023-04-14T05:20:12.286Z,13.45
2023-04-14T05:22:40.684Z,13.32
2023-04-14T05:25:08.530Z,13.47
2023-04-14T05:27:36.563Z,13.37
2023-04-14T05:30:04.229Z,13.25
2023-04-14T05:32:32.234Z,13.14
2023-04-14T05:34:59.996Z,13.38
2023-04-14T05:37:30.166Z,13.84
2023-04-14T05:39:57.794Z,13.62
2023-04-14T05:42:25.863Z,13.54
2023-04-14T05:44:53.463Z,13.88
2023-04-14T05:47:21.498Z,13.34
2023-04-14T05:49:49.093Z,13.32
2023-04-14T05:52:17.044Z,13.18
2023-04-14T05:54:44.699Z,13.49
2023-04-14T05:57:12.613Z,13.70
2023-04-14T05:59:40.243Z,13.67
2023-04-14T06:02:08.405Z,13.45
2023-04-14T06:04:36.294Z,13.67
2023-04-14T06:07:04.500Z,13.48
2023-04-14T06:09:32.341Z,13.94
2023-04-14T06:12:01.744Z,14.03
2023-04-14T06:14:29.465Z,14.18
2023-04-14T06:16:57.575Z,14.28
2023-04-14T06:19:25.346Z,14.51
2023-04-14T06:21:53.293Z,14.62
2023-04-14T06:24:20.960Z,14.72
2023-04-14T06:26:48.945Z,14.65
2023-04-14T06:29:16.694Z,14.62
2023-04-14T06:31:44.826Z,14.92
2023-04-14T06:34:12.453Z,15.01
2023-04-14T06:36:40.459Z,14.66
2023-04-14T06:39:08.065Z,14.56
2023-04-14T06:41:36.134Z,14.58
2023-04-14T06:44:05.228Z,14.47
2023-04-14T06:46:36.200Z,14.44
2023-04-14T06:49:04.111Z,14.35
2023-04-14T06:51:32.852Z,14.27
2023-04-14T06:54:01.020Z,13.73
2023-04-14T06:56:29.212Z,13.96
2023-04-14T06:58:56.913Z,13.57
2023-04-14T07:01:24.902Z,13.69
2023-04-14T07:03:52.615Z,13.54
2023-04-14T07:06:20.751Z,13.41
2023-04-14T07:08:48.427Z,13.72
2023-04-14T07:11:16.397Z,13.92
2023-04-14T07:13:43.973Z,14.62
2023-04-14T07:16:12.295Z,14.51
2023-04-14T07:18:39.991Z,14.69
2023-04-14T07:21:07.940Z,14.77
2023-04-14T07:23:35.707Z,14.55
2023-04-14T07:26:03.797Z,14.31
2023-04-14T07:28:32.825Z,14.39
2023-04-14T07:31:07.758Z,14.22
2023-04-14T07:33:35.994Z,14.80
2023-04-14T07:36:08.262Z,14.15
2023-04-14T07:38:35.855Z,14.00
2023-04-14T07:41:04.683Z,14.57
2023-04-14T07:43:36.022Z,14.59
2023-04-14T07:46:07.787Z,15.20
2023-04-14T07:48:37.349Z,15.74
2023-04-14T07:51:05.332Z,15.88
2023-04-14T07:53:33.339Z,16.07
2023-04-14T07:56:01.782Z,15.26
2023-04-14T07:58:30.002Z,15.24
2023-04-14T08:00:58.593Z,14.75
2023-04-14T08:03:26.969Z,14.72
2023-04-14T08:05:55.717Z,14.98
2023-04-14T08:08:23.825Z,14.74
2023-04-14T08:10:52.141Z,15.17
2023-04-14T08:13:19.736Z,15.11
2023-04-14T08:15:47.745Z,15.39
2023-04-14T08:18:15.664Z,15.42
2023-04-14T08:20:44.531Z,15.35
2023-04-14T08:23:12.513Z,14.72
2023-04-14T08:25:40.567Z,15.89
2023-04-14T08:28:08.260Z,15.76
2023-04-14T08:30:36.321Z,15.24
2023-04-14T08:33:04.278Z,15.57
2023-04-14T08:35:38.042Z,15.45
2023-04-14T08:38:09.488Z,15.33
2023-04-14T08:40:38.844Z,15.56
2023-04-14T08:43:06.795Z,15.06
2023-04-14T08:45:35.297Z,15.26
2023-04-14T08:48:03.969Z,15.46
2023-04-14T08:50:34.125Z,15.37
2023-04-14T08:53:04.478Z,15.49
2023-04-14T08:55:32.835Z,15.72
2023-04-14T08:58:02.421Z,16.14
2023-04-14T09:00:31.646Z,16.02
2023-04-14T09:02:59.892Z,15.66
2023-04-14T09:05:29.901Z,16.14
2023-04-14T09:07:58.420Z,16.20
2023-04-14T09:10:27.240Z,16.39
2023-04-14T09:12:55.040Z,16.91
2023-04-14T09:15:24.698Z,16.49
2023-04-14T09:17:52.413Z,17.08
2023-04-14T09:20:35.106Z,16.49
2023-04-14T09:23:08.141Z,15.82
2023-04-14T09:25:36.834Z,15.95
2023-04-14T09:28:04.568Z,15.71
2023-04-14T09:30:33.063Z,15.69
2023-04-14T09:33:04.767Z,15.34
2023-04-14T09:35:47.020Z,15.64
2023-04-14T09:38:15.017Z,15.67
2023-04-14T09:40:44.147Z,15.51
2023-04-14T09:43:25.635Z,16.07
2023-04-14T09:45:54.278Z,16.37
2023-04-14T09:48:22.360Z,15.95
2023-04-14T09:51:01.458Z,15.61
2023-04-14T09:53:30.534Z,16.15
2023-04-14T09:56:03.676Z,15.69
2023-04-14T09:58:35.470Z,15.50
2023-04-14T10:01:21.998Z,16.67
2023-04-14T10:03:50.413Z,16.74
2023-04-14T10:06:19.555Z,16.61
2023-04-14T10:08:49.061Z,17.10
2023-04-14T10:11:26.654Z,16.54
2023-04-14T10:13:55.828Z,16.20
2023-04-14T10:16:24.456Z,16.84
2023-04-14T10:18:52.442Z,16.85
2023-04-14T10:21:23.233Z,17.65
2023-04-14T10:23:51.456Z,17.00
2023-04-14T10:26:20.259Z,16.96
2023-04-14T10:28:49.342Z,16.68
2023-04-14T10:31:32.784Z,16.64
2023-04-14T10:34:07.730Z,17.03
2023-04-14T10:36:37.424Z,16.67
2023-04-14T10:39:05.776Z,17.25
2023-04-14T10:41:43.227Z,18.07
2023-04-14T10:44:23.905Z,18.20
2023-04-14T10:46:52.495Z,18.54
2023-04-14T10:49:23.338Z,18.18
2023-04-14T10:51:51.301Z,17.79
2023-04-14T10:54:19.498Z,18.76
2023-04-14T10:57:08.231Z,18.52
2023-04-14T10:59:36.170Z,18.80
2023-04-14T11:02:04.268Z,18.90
2023-04-14T11:04:32.262Z,19.88
2023-04-14T11:07:08.846Z,20.03
2023-04-14T11:09:39.381Z,21.21
2023-04-14T11:12:27.822Z,21.34
2023-04-14T11:14:56.950Z,21.08
2023-04-14T11:17:29.607Z,22.07
2023-04-14T11:19:58.187Z,20.21
2023-04-14T11:22:42.622Z,20.39
2023-04-14T11:25:14.406Z,21.09
2023-04-14T11:27:43.401Z,20.14
2023-04-14T11:30:20.611Z,19.59
2023-04-14T11:32:50.684Z,20.27
2023-04-14T11:35:19.336Z,20.78
2023-04-14T11:37:47.341Z,20.64
2023-04-14T11:40:16.106Z,22.78
2023-04-14T11:42:46.825Z,21.67
2023-04-14T11:45:17.573Z,20.60
2023-04-14T11:48:01.808Z,19.78
2023-04-14T11:50:33.870Z,20.12
2023-04-14T11:53:03.225Z,19.68
2023-04-14T11:55:31.028Z,21.13
2023-04-14T11:57:59.406Z,20.67
2023-04-14T12:00:27.717Z,20.32
2023-04-14T12:02:56.816Z,20.44
2023-04-14T12:05:31.810Z,20.90
2023-04-14T12:08:00.732Z,20.58
2023-04-14T12:10:28.952Z,20.58
2023-04-14T12:13:01.873Z,21.53
2023-04-14T12:15:31.324Z,21.12
2023-04-14T12:17:59.980Z,20.91
2023-04-14T12:20:28.178Z,21.33
2023-04-14T12:23:03.001Z,22.59
2023-04-14T12:25:33.836Z,21.69
2023-04-14T12:28:08.906Z,21.23
2023-04-14T12:30:37.561Z,21.23
2023-04-14T12:33:12.262Z,22.01
2023-04-14T12:35:40.953Z,20.49
2023-04-14T12:38:15.108Z,21.06
2023-04-14T12:40:48.139Z,20.57
2023-04-14T12:43:16.994Z,21.49
2023-04-14T12:45:45.498Z,21.30
2023-04-14T12:48:14.500Z,21.60
2023-04-14T12:50:42.186Z,22.18
2023-04-14T12:53:29.235Z,21.22
2023-04-14T12:56:09.376Z,21.71
2023-04-14T12:58:38.153Z,21.60
2023-04-14T13:01:09.446Z,21.81
2023-04-14T13:03:47.784Z,20.66
2023-04-14T13:06:18.944Z,20.75
2023-04-14T13:08:47.980Z,21.10
2023-04-14T13:11:16.547Z,22.23
2023-04-14T13:13:45.901Z,20.97
2023-04-14T13:16:17.069Z,21.94
2023-04-14T13:18:47.467Z,22.00
2023-04-14T13:21:15.406Z,22.58
2023-04-14T13:23:43.440Z,22.78
2023-04-14T13:26:11.213Z,23.06
2023-04-14T13:28:39.481Z,23.12
2023-04-14T13:31:07.499Z,24.14
2023-04-14T13:33:35.762Z,22.82
2023-04-14T13:36:03.455Z,23.33
2023-04-14T13:38:31.594Z,22.84
2023-04-14T13:40:59.404Z,24.86
2023-04-14T13:43:27.421Z,23.63
2023-04-14T13:45:58.809Z,22.21
2023-04-14T13:48:27.541Z,22.67
2023-04-14T13:50:56.096Z,23.15
2023-04-14T13:53:24.252Z,22.39
2023-04-14T13:55:51.931Z,22.15
2023-04-14T13:58:19.876Z,23.10
2023-04-14T14:00:47.513Z,23.01
2023-04-14T14:03:16.022Z,21.67
2023-04-14T14:05:44.051Z,21.76
2023-04-14T14:08:13.706Z,21.92
2023-04-14T14:10:41.723Z,23.43
2023-04-14T14:13:09.911Z,23.66
2023-04-14T14:15:37.590Z,24.28
2023-04-14T14:18:05.685Z,23.32
2023-04-14T14:20:33.282Z,23.63
2023-04-14T14:23:01.280Z,24.35
2023-04-14T14:25:29.733Z,25.07
2023-04-14T14:27:59.739Z,24.04
2023-04-14T14:30:27.510Z,24.73
2023-04-14T14:32:55.577Z,24.32
2023-04-14T14:35:23.285Z,24.36
2023-04-14T14:37:51.662Z,24.32
2023-04-14T14:40:19.388Z,24.08
2023-04-14T14:42:47.365Z,24.58
2023-04-14T14:45:15.524Z,25.07
2023-04-14T14:47:46.999Z,24.32
2023-04-14T14:50:14.566Z,24.04
2023-04-14T14:52:42.487Z,24.34
2023-04-14T14:55:10.469Z,25.91
2023-04-14T14:57:38.419Z,25.73
2023-04-14T15:00:08.238Z,26.26
2023-04-14T15:02:36.795Z,24.66
2023-04-14T15:05:05.369Z,24.92
2023-04-14T15:07:33.777Z,25.10
2023-04-14T15:10:04.056Z,25.13
2023-04-14T15:12:32.163Z,23.82
2023-04-14T15:14:59.899Z,23.49
2023-04-14T15:17:28.209Z,23.84
2023-04-14T15:19:55.837Z,25.09
2023-04-14T15:22:24.131Z,25.81
2023-04-14T15:24:51.834Z,26.15
2023-04-14T15:27:19.826Z,26.41
2023-04-14T15:29:47.429Z,25.10
2023-04-14T15:32:15.674Z,24.32
2023-04-14T15:34:43.354Z,24.31
2023-04-14T15:37:11.445Z,24.20
2023-04-14T15:39:39.168Z,24.24
2023-04-14T15:42:07.544Z,22.70
2023-04-14T15:44:35.207Z,23.02
2023-04-14T15:47:03.303Z,22.64
2023-04-14T15:49:31.266Z,22.99
2023-04-14T15:51:59.251Z,23.43
2023-04-14T15:54:28.486Z,23.23
2023-04-14T15:56:56.363Z,23.04
2023-04-14T15:59:25.394Z,23.78
2023-04-14T16:01:53.789Z,22.92
2023-04-14T16:04:21.663Z,23.22
2023-04-14T16:06:49.747Z,23.42
2023-04-14T16:09:17.455Z,23.66
2023-04-14T16:11:45.535Z,23.55
2023-04-14T16:14:14.002Z,23.21
2023-04-14T16:16:46.954Z,23.20
2023-04-14T16:19:17.545Z,23.12
2023-04-14T16:21:45.569Z,23.21
2023-04-14T16:24:13.327Z,22.95
2023-04-14T16:26:41.602Z,22.65
2023-04-14T16:29:09.695Z,22.72
2023-04-14T16:31:37.985Z,22.46
2023-04-14T16:34:05.702Z,22.44
2023-04-14T16:36:34.535Z,22.56
2023-04-14T16:39:02.491Z,22.80
2023-04-14T16:41:30.710Z,22.81
2023-04-14T16:43:58.300Z,22.76
2023-04-14T16:46:26.425Z,22.09
2023-04-14T16:48:54.016Z,21.79
2023-04-14T16:51:22.288Z,21.44
2023-04-14T16:53:49.943Z,21.15
2023-04-14T16:56:18.168Z,20.83
2023-04-14T16:58:45.870Z,20.70
2023-04-14T17:01:13.846Z,20.53
2023-04-14T17:03:41.857Z,20.17
2023-04-14T17:06:09.992Z,20.45
2023-04-14T17:08:38.452Z,20.46
2023-04-14T17:11:06.577Z,20.77
2023-04-14T17:13:34.744Z,20.65
2023-04-14T17:16:08.933Z,20.50
2023-04-14T17:18:37.794Z,20.52
2023-04-14T17:21:06.569Z,20.62
2023-04-14T17:23:38.062Z,20.59
2023-04-14T17:26:06.588Z,20.52
2023-04-14T17:28:35.153Z,20.70
2023-04-14T17:31:06.363Z,20.65
2023-04-14T17:33:34.086Z,20.65
2023-04-14T17:36:02.729Z,20.67
2023-04-14T17:38:31.436Z,20.34
2023-04-14T17:40:59.556Z,20.48
2023-04-14T17:43:27.574Z,20.42
2023-04-14T17:45:55.565Z,20.41
2023-04-14T17:48:23.396Z,20.30
2023-04-14T17:50:51.865Z,20.21
2023-04-14T17:53:19.514Z,20.24
2023-04-14T17:55:47.827Z,20.24
2023-04-14T17:58:15.534Z,20.00
2023-04-14T18:00:43.179Z,19.91
2023-04-14T18:03:11.328Z,20.06
2023-04-14T18:05:39.030Z,20.01
2023-04-14T18:08:06.997Z,19.67
2023-04-14T18:10:36.306Z,19.71
2023-04-14T18:13:04.258Z,19.66
2023-04-14T18:15:32.438Z,19.72
2023-04-14T18:18:00.698Z,19.72
2023-04-14T18:20:28.754Z,19.61
2023-04-14T18:23:02.255Z,19.52
2023-04-14T18:28:07.859Z,19.48
2023-04-14T18:30:38.986Z,19.57
2023-04-14T18:33:12.823Z,19.29
2023-04-14T18:35:40.838Z,19.26
2023-04-14T18:38:09.067Z,19.11
2023-04-14T18:40:38.201Z,19.11
2023-04-14T18:43:07.025Z,19.08
2023-04-14T18:45:35.045Z,19.25
2023-04-14T18:48:03.215Z,19.02
2023-04-14T18:50:31.165Z,19.03
2023-04-14T18:52:59.180Z,18.99
2023-04-14T18:55:26.915Z,18.95
2023-04-14T18:58:13.254Z,18.88
2023-04-14T19:00:42.776Z,18.53
2023-04-14T19:03:11.135Z,18.17
2023-04-14T19:05:38.994Z,18.36
2023-04-14T19:08:09.956Z,18.33
2023-04-14T19:10:37.774Z,18.36
2023-04-14T19:13:05.983Z,18.14
2023-04-14T19:15:33.936Z,18.04
2023-04-14T19:18:03.817Z,18.30
2023-04-14T19:20:31.807Z,18.44
2023-04-14T19:23:00.146Z,18.10
2023-04-14T19:25:27.828Z,18.14
2023-04-14T19:27:58.136Z,17.86
2023-04-14T19:30:25.745Z,18.00
2023-04-14T19:32:54.733Z,17.82
2023-04-14T19:35:22.823Z,17.71
2023-04-14T19:37:55.858Z,17.83
2023-04-14T19:40:23.620Z,17.73
2023-04-14T19:42:55.490Z,17.46
2023-04-14T19:45:23.274Z,17.62
2023-04-14T19:47:52.094Z,17.52
2023-04-14T19:50:20.323Z,17.49
2023-04-14T19:52:50.068Z,17.28
2023-04-14T19:55:18.574Z,17.33
2023-04-14T19:57:47.128Z,17.40
2023-04-14T20:00:16.264Z,17.31
2023-04-14T20:02:45.234Z,17.19
2023-04-14T20:05:12.996Z,17.41
2023-04-14T20:07:41.230Z,17.16
2023-04-14T20:10:10.440Z,17.14
2023-04-14T20:12:38.656Z,17.00
2023-04-14T20:15:06.601Z,16.82
2023-04-14T20:17:35.184Z,16.80
2023-04-14T20:20:06.037Z,16.85
2023-04-14T20:22:34.416Z,16.87
2023-04-14T20:25:02.318Z,16.75
2023-04-14T20:27:30.336Z,16.91
2023-04-14T20:29:58.183Z,16.81
2023-04-14T20:32:26.387Z,16.90
2023-04-14T20:34:54.213Z,17.00
2023-04-14T20:37:22.998Z,16.86
2023-04-14T20:39:52.885Z,16.83
2023-04-14T20:42:20.768Z,16.75
2023-04-14T20:44:48.314Z,16.70
2023-04-14T20:47:17.197Z,16.88
2023-04-14T20:49:45.215Z,16.73
2023-04-14T20:52:13.077Z,16.85
2023-04-14T20:54:40.648Z,16.75
2023-04-14T20:57:08.957Z,16.72
2023-04-14T20:59:36.913Z,16.81
2023-04-14T21:02:05.104Z,16.79
2023-04-14T21:04:33.604Z,16.77
2023-04-14T21:07:01.986Z,16.81
2023-04-14T21:09:30.511Z,16.84
2023-04-14T21:12:15.948Z,16.90
2023-04-14T21:15:47.305Z,16.92
2023-04-14T21:17:34.734Z,16.91
2023-04-14T21:20:03.833Z,17.01
2023-04-14T21:22:32.292Z,16.95
2023-04-14T21:25:00.026Z,16.92
2023-04-14T21:27:30.885Z,16.96
2023-04-14T21:29:58.611Z,17.07
2023-04-14T21:32:26.710Z,16.76
2023-04-14T21:34:54.835Z,16.82
2023-04-14T21:37:23.445Z,16.66
2023-04-14T21:39:50.982Z,16.64
2023-04-14T21:42:19.026Z,16.72
2023-04-14T21:44:47.109Z,16.57
2023-04-14T21:47:15.042Z,16.90
2023-04-14T21:49:42.604Z,16.62
2023-04-14T21:52:10.772Z,16.66
2023-04-14T21:54:43.796Z,16.56
2023-04-14T21:57:11.776Z,16.58
2023-04-14T21:59:39.415Z,16.69
2023-04-14T22:02:07.574Z,16.87
2023-04-14T22:04:37.036Z,16.73
2023-04-14T22:07:05.632Z,16.71
2023-04-14T22:09:33.954Z,16.49
2023-04-14T22:12:02.236Z,16.53
2023-04-14T22:14:29.753Z,16.41
2023-04-14T22:16:57.720Z,16.37
2023-04-14T22:19:25.305Z,16.22
2023-04-14T22:21:53.220Z,16.43
2023-04-14T22:24:20.765Z,16.46
2023-04-14T22:26:49.053Z,16.25
2023-04-14T22:29:16.580Z,16.47
2023-04-14T22:31:44.588Z,16.44
2023-04-14T22:34:12.175Z,16.39
2023-04-14T22:36:40.094Z,16.35
2023-04-14T22:39:07.684Z,16.33
2023-04-14T22:41:35.577Z,16.45
2023-04-14T22:44:06.306Z,16.37
2023-04-14T22:46:34.398Z,16.16
2023-04-14T22:49:02.357Z,16.16
2023-04-14T22:51:30.583Z,15.98
2023-04-14T22:53:58.133Z,16.16
2023-04-14T22:56:26.693Z,16.36
2023-04-14T22:58:54.715Z,16.12
2023-04-14T23:01:23.729Z,16.01
2023-04-14T23:03:53.079Z,15.95
2023-04-14T23:06:21.605Z,15.92
2023-04-14T23:08:49.863Z,15.91
2023-04-14T23:11:21.099Z,15.89
2023-04-14T23:13:49.534Z,16.02
2023-04-14T23:16:21.850Z,15.77
2023-04-14T23:18:53.133Z,15.90
2023-04-14T23:21:24.012Z,16.02
2023-04-14T23:23:51.988Z,15.98
2023-04-14T23:26:21.452Z,15.87
2023-04-14T23:28:49.161Z,15.78
2023-04-14T23:31:18.299Z,15.74
2023-04-14T23:33:48.923Z,15.92
2023-04-14T23:36:16.884Z,15.81
2023-04-14T23:38:44.994Z,16.02
2023-04-14T23:41:12.967Z,15.78
2023-04-14T23:43:40.532Z,15.84
2023-04-14T23:46:08.420Z,15.84
2023-04-14T23:48:36.044Z,15.69
2023-04-14T23:51:17.588Z,15.78
2023-04-14T23:53:50.859Z,15.54
2023-04-14T23:56:18.990Z,15.40
2023-04-14T23:58:47.330Z,15.50
